createdAt,value
2023-05-22T06:36:58.232Z,56.65
2023-05-22T06:48:38.517Z,57.19
2023-05-22T06:54:07.085Z,57.55
2023-05-22T07:56:34.090Z,62.05
2023-05-22T08:01:37.122Z,62.99
2023-05-22T08:06:38.847Z,64.21
2023-05-22T08:11:45.601Z,64.23
2023-05-22T08:16:48.542Z,62.93
2023-05-22T08:35:46.428Z,63.81
2023-05-22T08:38:20.029Z,63.28
2023-05-22T08:43:22.396Z,63.33
2023-05-22T08:48:24.399Z,63.26
2023-05-22T08:53:33.191Z,62.90
2023-05-22T08:58:50.786Z,63.34
2023-05-22T09:03:58.894Z,63.94
2023-05-22T09:09:01.142Z,64.18
2023-05-22T09:14:16.127Z,63.93
2023-05-22T09:19:26.252Z,64.23
2023-05-22T09:24:46.575Z,64.36
2023-05-22T09:30:05.408Z,64.61
2023-05-22T09:52:05.857Z,64.57
2023-05-22T09:57:09.282Z,64.34
2023-05-22T10:02:19.776Z,63.74
2023-05-22T10:07:39.856Z,63.85
2023-05-22T10:12:55.947Z,64.37
2023-05-22T10:29:42.387Z,65.53
2023-05-22T10:35:05.516Z,65.07
2023-05-22T10:40:18.264Z,64.42
2023-05-22T10:45:23.670Z,64.56
2023-05-22T10:50:38.387Z,64.32
2023-05-22T10:55:56.624Z,64.75
2023-05-22T11:01:18.315Z,64.36
2023-05-22T11:06:32.966Z,64.63
2023-05-22T11:11:41.402Z,64.56
2023-05-22T11:16:44.116Z,64.23
2023-05-22T11:21:55.395Z,64.81
2023-05-22T11:27:09.941Z,64.30
2023-05-22T11:32:22.486Z,64.31
2023-05-22T11:37:28.225Z,64.26
2023-05-22T11:42:37.398Z,64.88
2023-05-22T11:47:41.902Z,64.48
2023-05-22T11:58:16.525Z,65.29
2023-05-22T12:26:09.811Z,65.34
2023-05-22T12:31:25.047Z,65.43
2023-05-22T13:04:51.790Z,64.97
2023-05-22T13:16:29.023Z,63.92
2023-05-22T13:22:24.105Z,64.97
2023-05-22T13:38:43.263Z,65.33
2023-05-22T13:43:56.613Z,65.54
2023-05-22T13:49:02.592Z,65.17
2023-05-22T13:59:30.640Z,65.67
2023-05-22T14:04:33.660Z,65.44
2023-05-22T14:21:36.835Z,65.95
2023-05-22T14:26:41.220Z,65.36
2023-05-22T14:32:09.824Z,65.30
2023-05-22T14:37:49.189Z,65.34
2023-05-22T14:43:00.345Z,65.33
2023-05-22T14:53:27.916Z,63.74
2023-05-22T14:58:35.961Z,63.50
2023-05-22T15:03:46.633Z,63.36
2023-05-22T15:08:51.502Z,63.48
2023-05-22T18:27:15.968Z,65.39
2023-05-22T18:46:58.049Z,64.42
2023-05-22T18:51:02.405Z,64.58
2023-05-22T18:56:04.585Z,64.46
2023-05-22T19:01:08.431Z,64.17
2023-05-22T19:06:10.339Z,64.09
2023-05-22T19:11:14.110Z,64.16
2023-05-22T19:16:16.849Z,64.34
2023-05-22T19:21:41.685Z,64.49
2023-05-22T19:26:46.408Z,64.31
2023-05-22T19:31:48.212Z,64.11
2023-05-22T19:36:50.020Z,64.25
2023-05-22T19:41:51.914Z,64.52
2023-05-22T19:46:53.897Z,64.69
2023-05-22T19:51:56.346Z,64.59
2023-05-22T19:56:58.234Z,64.79
2023-05-22T20:02:04.452Z,64.57
2023-05-22T20:12:31.600Z,64.27
2023-05-22T20:17:35.977Z,64.29
2023-05-22T20:22:38.774Z,64.51
2023-05-22T20:27:43.627Z,64.04
2023-05-22T20:32:45.804Z,64.14
2023-05-22T20:37:47.951Z,63.88
2023-05-22T20:42:49.733Z,63.88
2023-05-22T20:47:53.900Z,63.96
2023-05-22T20:52:58.909Z,64.02
2023-05-22T20:58:06.172Z,64.01
2023-05-22T21:03:09.830Z,64.05
2023-05-22T21:08:11.812Z,64.04
2023-05-22T21:13:13.628Z,64.28
2023-05-22T21:18:15.502Z,63.95
2023-05-22T21:23:18.381Z,63.82
2023-05-22T21:28:20.304Z,64.08
2023-05-22T21:33:21.993Z,63.83
2023-05-22T21:38:23.632Z,64.12
2023-05-22T21:43:27.631Z,63.98
2023-05-22T21:48:31.938Z,64.17
2023-05-22T21:53:36.010Z,63.88
2023-05-22T21:58:37.835Z,63.72
2023-05-22T22:03:43.163Z,63.77
2023-05-22T22:08:47.854Z,63.46
2023-05-22T22:13:49.756Z,63.53
2023-05-22T22:18:52.908Z,63.41
2023-05-22T22:23:57.957Z,63.67
2023-05-22T22:28:59.999Z,63.62
2023-05-22T22:34:10.594Z,63.33
2023-05-22T22:39:19.288Z,63.21
2023-05-22T22:44:21.020Z,63.17
2023-05-22T22:49:23.280Z,63.47
2023-05-22T22:54:25.152Z,63.01
2023-05-22T22:59:27.253Z,63.13
2023-05-22T23:04:32.467Z,63.33
2023-05-22T23:09:34.118Z,63.06
2023-05-22T23:14:35.935Z,63.13
2023-05-22T23:19:41.621Z,63.13
2023-05-22T23:24:43.447Z,63.14
2023-05-22T23:29:47.268Z,62.95
2023-05-22T23:34:50.744Z,62.94
2023-05-22T23:39:54.422Z,63.21
2023-05-22T23:44:59.592Z,62.97
2023-05-22T23:50:01.318Z,63.28
2023-05-22T23:55:03.895Z,63.03
